»·PEaware :: JUS326 KSAN-KONT

JUS326 :: KSAN-KONT

FLIGHT INFORMATION

Flight Status: Arrived
Operator:
USA Jet
More flights by this operator :: More flights under this callsign
Pilot: Erik S. (3779)
Aircraft: BOEING 737-300
(B733)
More flights by this aircraft type
Origin: KSAN San Diego Intl-Lindbergh
United States
Destination: KONT Ontario Intl
United States
More flights between these airports :: More routes between these airports
Route: V186 TANNR HDF PETIS
File this flight plan on PilotEdge
Remarks:
Altitude:
(Current/Filed)
10,000ft
Speed:
(Current/Filed)
350kts
Departed: 02-Jan-18 09:44 AM
Arrived: 02-Jan-18 10:10 AM
Distance/Time
Traveled:
81nm/0:26
Distance/Time
To Go:
Arrived

Flight Plot

Page will automatically refresh every two minutes.


Map Options




Map Legend


Flown Route
Filed Route
Departure Airport
Arrival Airport
Navaid (VOR, NDB)
Fix

Horizontal Profiles

Position Reports

Time Latitude Longitude Heading Altitude Ground
Speed
02-Jan-18 09:31 32.737160 -117.185592 354 24ft 0kts
02-Jan-18 09:32 32.737160 -117.185592 354 24ft 0kts
02-Jan-18 09:33 32.737160 -117.185592 354 24ft 0kts
02-Jan-18 09:34 32.737160 -117.185592 354 24ft 0kts
02-Jan-18 09:35 32.737160 -117.185592 354 24ft 0kts
02-Jan-18 09:36 32.737160 -117.185592 354 24ft 0kts
02-Jan-18 09:37 32.737160 -117.185592 354 24ft 0kts
02-Jan-18 09:38 32.737160 -117.185592 354 24ft 0kts
02-Jan-18 09:39 32.737160 -117.185592 354 24ft 0kts
02-Jan-18 09:40 32.737160 -117.185592 354 24ft 0kts
02-Jan-18 09:41 32.737160 -117.185592 354 24ft 0kts
02-Jan-18 09:42 32.736946 -117.185569 354 24ft 0kts
02-Jan-18 09:43 32.736412 -117.185463 342 24ft 0kts
02-Jan-18 09:44 32.736363 -117.185443 325 24ft 0kts
02-Jan-18 09:45 32.736401 -117.185506 300 24ft 6kts
02-Jan-18 09:46 32.734262 -117.183854 171 24ft 13kts
02-Jan-18 09:47 32.732417 -117.180123 105 24ft 15kts
02-Jan-18 09:48 32.731111 -117.175651 120 24ft 0kts
02-Jan-18 09:49 32.730252 -117.175316 224 24ft 16kts
02-Jan-18 09:50 32.740416 -117.219915 286 1342ft 189kts
02-Jan-18 09:51 32.753380 -117.275555 286 3468ft 233kts
02-Jan-18 09:52 32.772395 -117.355733 286 6090ft 276kts
02-Jan-18 09:53 32.816183 -117.423237 355 9135ft 285kts
02-Jan-18 09:54 32.903939 -117.374794 31 9964ft 321kts
02-Jan-18 09:55 32.968061 -117.329587 31 9977ft 322kts
02-Jan-18 09:56 33.044973 -117.275236 31 9978ft 321kts
02-Jan-18 09:57 33.121196 -117.221227 31 9974ft 320kts
02-Jan-18 09:58 33.197488 -117.167153 31 9975ft 320kts
02-Jan-18 09:59 33.275628 -117.117435 10 9977ft 321kts
02-Jan-18 10:00 33.363257 -117.136120 349 9987ft 321kts
02-Jan-18 10:01 33.450632 -117.155607 350 9999ft 319kts
02-Jan-18 10:02 33.538506 -117.166269 356 10004ft 319kts
02-Jan-18 10:03 33.627833 -117.173311 356 10006ft 324kts
02-Jan-18 10:04 33.716192 -117.180361 356 10037ft 296kts
02-Jan-18 10:05 33.792370 -117.193641 331 9616ft 280kts
02-Jan-18 10:06 33.859322 -117.238280 331 7906ft 270kts
02-Jan-18 10:07 33.930220 -117.260369 351 6200ft 263kts
02-Jan-18 10:08 33.998171 -117.273442 351 5523ft 218kts
02-Jan-18 10:09 34.053926 -117.291222 305 5003ft 207kts
02-Jan-18 10:10 34.058010 -117.356463 261 4854ft 202kts
02-Jan-18 10:11 34.054505 -117.416974 270 3649ft 153kts
02-Jan-18 10:12 34.054857 -117.466059 270 2876ft 144kts
02-Jan-18 10:13 34.054932 -117.514102 270 2100ft 142kts
02-Jan-18 10:14 34.054977 -117.561616 269 1304ft 141kts
02-Jan-18 10:15 34.054949 -117.602264 270 950ft 60kts
02-Jan-18 10:16 34.053797 -117.599285 88 950ft 20kts
02-Jan-18 10:17 34.053830 -117.591656 89 950ft 26kts
02-Jan-18 10:18 34.053469 -117.582424 151 950ft 19kts
02-Jan-18 10:19 34.050474 -117.580354 179 950ft 0kts
02-Jan-18 10:20 34.050474 -117.580354 179 950ft 0kts
02-Jan-18 10:21 34.050474 -117.580354 179 950ft 0kts
02-Jan-18 10:22 34.050474 -117.580354 179 950ft 0kts
02-Jan-18 10:23 34.050474 -117.580354 179 950ft 0kts
02-Jan-18 10:24 34.050474 -117.580354 179 950ft 0kts
02-Jan-18 10:25 34.050474 -117.580354 179 950ft 0kts
02-Jan-18 10:26 34.050474 -117.580354 179 950ft 0kts
02-Jan-18 10:27 34.050474 -117.580354 179 950ft 0kts
02-Jan-18 10:28 34.050474 -117.580354 179 950ft 0kts
02-Jan-18 10:29 34.050474 -117.580354 179 950ft 0kts
02-Jan-18 10:30 34.050474 -117.580354 179 950ft 0kts

Navigation Log

Ident Type
1. KSAN Airport
2. TANNR Fix
3. HDF Navaid
4. PETIS Fix
5. KONT Airport